الصفحة الرئيسية
METAR-TAF:

METAR-TAF

مطار :

كيب تاون, جنوب أفريقيا

مطار كيب تاون

دائرة عرض: 33-59S, خط طول: 018-36E, ارتفاع: 42 متر

مراقبة الطقس الحالي

تاريخ ووقت الإصدار 1ساعة و 6 دقيقة قبل الساعة 02:00UTC
ريح 6 عقدة من الشمال الشرقي
درجة الحرارة 12°درجة مئوية
الرطوبة 94%
ضغط 1017 hPa
الرؤية 10 كم أو أكثر
الغيوم لا تقل 1500 م ولا وجود لمزنة ركامية السحاب الأسود

METAR: FACT 220200Z 05006KT CAVOK 12/11 Q1017 NOSIG

زمن: 05:06 (03:06 UTC)

توقعات

تاريخ ووقت الإصدار 5ساعات و 6 دقيقة قبل الساعة 22:00UTC
التوقعات صالحة من22 الساعة 00 UTC إلى 23 الساعة 06 UTC
ريح 3 عقدةمن اتجاهات متغيرة
الرؤية 10 كم أو أكثر
غيوم قليلة على ارتفاع 1500 قدم
من 22 الساعة 0700 UTC
ريح 10 عقدة من الشمال/الشمال الغربي
الرؤية 10 كم أو أكثر
الغيوم لا تقل 1500 م ولا وجود لمزنة ركامية السحاب الأسود
أصبح
من 22 الساعة 17 UTC إلى 22 الساعة 19 UTC
غيوم مفككة على ارتفاع 1400 قدم
من 23 الساعة 0500 UTC
ريح 13 عقدة من الشمال
الرؤية 10 كم أو أكثر
غيوم قليلة على ارتفاع 2500 قدم

TAF: FACT 212200Z 2200/2306 VRB03KT 9999 FEW015 FM220700 34010KT CAVOK BECMG 2217/2219 BKN014 FM230500 01013KT 9999 FEW025 TX24/2212Z TN09/2205Z

أرصاد الطقس والتوقعات من أكثر من 4000 مطار (تقارير الطقس للمطار METAR والتنبؤ بالطقس بالمطارTAF).

المحطات المتاحة هي النقط الصفراء والحمراء على الخريطة.

حرك المؤشر فوق النقطة لمعرفة اسم المحطة.

ثم انقر لمعرفة أرصاد وتوقعات الطقس.

لتغيير الخارطة: اضغط على الأزرار الخضراء مع رمز الصليب الأسود للتكبير. على الزر الأخضر مع شرطة للتصغير، أو على الأسهم الخضراء للخرائط المجاورة.


METAR-TAF: